sensor_id;sensor_type;location;lat;lon;timestamp;pressure;altitude;pressure_sealevel;temperature;humidity
15529;BME280;7866;52.280;9.500;2023-07-31T00:04:36;99727.09;;;16.94;85.34
15529;BME280;7866;52.280;9.500;2023-07-31T00:09:39;99718.22;;;16.87;85.52
15529;BME280;7866;52.280;9.500;2023-07-31T00:14:40;99713.06;;;16.86;85.32
15529;BME280;7866;52.280;9.500;2023-07-31T00:19:42;99715.19;;;16.84;85.71
15529;BME280;7866;52.280;9.500;2023-07-31T00:24:45;99709.28;;;16.87;87.37
15529;BME280;7866;52.280;9.500;2023-07-31T00:29:46;99711.19;;;16.86;88.96
15529;BME280;7866;52.280;9.500;2023-07-31T00:34:48;99690.97;;;16.89;88.33
15529;BME280;7866;52.280;9.500;2023-07-31T00:39:51;99688.78;;;16.79;88.12
15529;BME280;7866;52.280;9.500;2023-07-31T00:44:53;99692.47;;;16.85;88.16
15529;BME280;7866;52.280;9.500;2023-07-31T00:49:54;99692.09;;;16.81;89.67
15529;BME280;7866;52.280;9.500;2023-07-31T00:54:58;99687.75;;;16.80;87.66
15529;BME280;7866;52.280;9.500;2023-07-31T01:00:00;99679.63;;;16.80;90.39
15529;BME280;7866;52.280;9.500;2023-07-31T01:05:01;99672.56;;;16.79;89.01
15529;BME280;7866;52.280;9.500;2023-07-31T01:10:10;99676.13;;;16.80;89.08
15529;BME280;7866;52.280;9.500;2023-07-31T01:15:12;99673.31;;;16.86;89.44
15529;BME280;7866;52.280;9.500;2023-07-31T01:20:18;99668.00;;;16.80;89.50
15529;BME280;7866;52.280;9.500;2023-07-31T01:25:43;99670.47;;;16.81;89.30
15529;BME280;7866;52.280;9.500;2023-07-31T01:30:48;99651.91;;;16.85;89.99
15529;BME280;7866;52.280;9.500;2023-07-31T01:35:50;99640.78;;;16.74;90.70
15529;BME280;7866;52.280;9.500;2023-07-31T01:40:53;99639.66;;;16.82;91.29
15529;BME280;7866;52.280;9.500;2023-07-31T01:45:55;99634.13;;;16.77;90.80
15529;BME280;7866;52.280;9.500;2023-07-31T01:51:00;99624.50;;;16.81;91.08
15529;BME280;7866;52.280;9.500;2023-07-31T01:56:03;99616.25;;;16.76;92.03
15529;BME280;7866;52.280;9.500;2023-07-31T02:01:06;99613.06;;;16.79;91.69
15529;BME280;7866;52.280;9.500;2023-07-31T02:06:07;99612.16;;;16.85;90.71
15529;BME280;7866;52.280;9.500;2023-07-31T02:11:10;99604.06;;;16.85;90.65
15529;BME280;7866;52.280;9.500;2023-07-31T02:16:12;99602.25;;;16.79;90.65
15529;BME280;7866;52.280;9.500;2023-07-31T02:21:14;99598.41;;;16.87;92.65
15529;BME280;7866;52.280;9.500;2023-07-31T02:26:17;99592.28;;;16.80;91.75
15529;BME280;7866;52.280;9.500;2023-07-31T02:31:18;99591.97;;;16.88;92.33
15529;BME280;7866;52.280;9.500;2023-07-31T02:36:20;99596.38;;;16.82;92.34
15529;BME280;7866;52.280;9.500;2023-07-31T02:41:23;99587.69;;;16.80;91.88
15529;BME280;7866;52.280;9.500;2023-07-31T02:46:25;99582.88;;;16.82;93.26
15529;BME280;7866;52.280;9.500;2023-07-31T02:51:26;99587.31;;;16.77;93.38
15529;BME280;7866;52.280;9.500;2023-07-31T02:56:29;99588.28;;;16.82;93.35
15529;BME280;7866;52.280;9.500;2023-07-31T03:01:31;99581.91;;;16.77;93.22
15529;BME280;7866;52.280;9.500;2023-07-31T03:06:32;99592.72;;;16.77;93.18
15529;BME280;7866;52.280;9.500;2023-07-31T03:11:35;99600.47;;;16.73;93.09
15529;BME280;7866;52.280;9.500;2023-07-31T03:16:37;99587.13;;;16.71;92.56
15529;BME280;7866;52.280;9.500;2023-07-31T03:21:39;99596.41;;;16.64;92.55
15529;BME280;7866;52.280;9.500;2023-07-31T03:26:42;99605.16;;;16.59;92.81
15529;BME280;7866;52.280;9.500;2023-07-31T03:31:43;99605.09;;;16.66;93.63
15529;BME280;7866;52.280;9.500;2023-07-31T03:36:45;99598.03;;;16.65;92.97
15529;BME280;7866;52.280;9.500;2023-07-31T03:41:48;99592.13;;;16.56;93.07
15529;BME280;7866;52.280;9.500;2023-07-31T03:46:49;99584.91;;;16.50;93.88
15529;BME280;7866;52.280;9.500;2023-07-31T03:51:51;99584.53;;;16.46;93.99
15529;BME280;7866;52.280;9.500;2023-07-31T03:56:54;99589.28;;;16.33;94.22
15529;BME280;7866;52.280;9.500;2023-07-31T04:01:56;99571.56;;;16.37;95.13
15529;BME280;7866;52.280;9.500;2023-07-31T04:06:57;99578.84;;;16.36;94.22
15529;BME280;7866;52.280;9.500;2023-07-31T04:12:00;99587.16;;;16.53;94.09
15529;BME280;7866;52.280;9.500;2023-07-31T04:17:02;99574.63;;;16.40;93.20
15529;BME280;7866;52.280;9.500;2023-07-31T04:22:04;99581.16;;;16.51;94.31
15529;BME280;7866;52.280;9.500;2023-07-31T04:27:07;99577.41;;;16.52;94.45
15529;BME280;7866;52.280;9.500;2023-07-31T04:32:08;99581.63;;;16.48;94.01
15529;BME280;7866;52.280;9.500;2023-07-31T04:37:10;99571.47;;;16.43;94.22
15529;BME280;7866;52.280;9.500;2023-07-31T04:42:13;99573.13;;;16.44;94.31
15529;BME280;7866;52.280;9.500;2023-07-31T04:47:15;99569.75;;;16.49;94.74
15529;BME280;7866;52.280;9.500;2023-07-31T04:52:16;99570.03;;;16.59;94.82
15529;BME280;7866;52.280;9.500;2023-07-31T04:57:19;99565.41;;;16.48;94.56
15529;BME280;7866;52.280;9.500;2023-07-31T05:02:21;99557.00;;;16.38;94.78
15529;BME280;7866;52.280;9.500;2023-07-31T05:07:22;99563.00;;;16.40;95.25
15529;BME280;7866;52.280;9.500;2023-07-31T05:12:25;99565.09;;;16.56;96.66
15529;BME280;7866;52.280;9.500;2023-07-31T05:17:27;99555.84;;;16.64;96.21
15529;BME280;7866;52.280;9.500;2023-07-31T05:22:29;99560.78;;;16.67;95.73
15529;BME280;7866;52.280;9.500;2023-07-31T05:27:32;99552.22;;;16.70;96.57
15529;BME280;7866;52.280;9.500;2023-07-31T05:32:34;99548.16;;;16.79;95.77
15529;BME280;7866;52.280;9.500;2023-07-31T05:37:35;99541.94;;;16.79;96.05
15529;BME280;7866;52.280;9.500;2023-07-31T05:42:38;99545.28;;;16.92;95.82
15529;BME280;7866;52.280;9.500;2023-07-31T05:47:40;99536.81;;;16.89;96.28
15529;BME280;7866;52.280;9.500;2023-07-31T05:52:42;99535.78;;;17.02;96.34
15529;BME280;7866;52.280;9.500;2023-07-31T05:57:45;99533.66;;;16.92;95.81
15529;BME280;7866;52.280;9.500;2023-07-31T06:02:46;99538.22;;;16.91;95.90
15529;BME280;7866;52.280;9.500;2023-07-31T06:07:48;99530.25;;;16.96;95.79
15529;BME280;7866;52.280;9.500;2023-07-31T06:12:51;99541.06;;;16.96;94.96
15529;BME280;7866;52.280;9.500;2023-07-31T06:17:53;99541.53;;;16.93;95.12
15529;BME280;7866;52.280;9.500;2023-07-31T06:22:54;99538.69;;;16.88;95.76
15529;BME280;7866;52.280;9.500;2023-07-31T06:27:57;99535.81;;;16.83;96.27
15529;BME280;7866;52.280;9.500;2023-07-31T06:32:59;99531.47;;;16.82;96.65
15529;BME280;7866;52.280;9.500;2023-07-31T06:38:01;99515.16;;;16.89;95.81
15529;BME280;7866;52.280;9.500;2023-07-31T06:43:04;99519.03;;;16.81;96.64
15529;BME280;7866;52.280;9.500;2023-07-31T06:48:08;99528.56;;;16.84;96.63
15529;BME280;7866;52.280;9.500;2023-07-31T06:53:09;99528.91;;;16.87;96.00
15529;BME280;7866;52.280;9.500;2023-07-31T06:58:12;99522.13;;;16.96;95.77
15529;BME280;7866;52.280;9.500;2023-07-31T07:03:14;99513.06;;;17.03;96.39
15529;BME280;7866;52.280;9.500;2023-07-31T07:08:16;99510.84;;;17.11;95.33
15529;BME280;7866;52.280;9.500;2023-07-31T07:13:19;99518.28;;;17.04;95.99
15529;BME280;7866;52.280;9.500;2023-07-31T07:18:21;99504.25;;;17.07;96.30
15529;BME280;7866;52.280;9.500;2023-07-31T07:23:22;99520.03;;;17.10;95.08
15529;BME280;7866;52.280;9.500;2023-07-31T07:28:25;99523.59;;;17.22;94.70
15529;BME280;7866;52.280;9.500;2023-07-31T07:33:31;99526.75;;;17.19;94.25
15529;BME280;7866;52.280;9.500;2023-07-31T07:38:32;99528.81;;;17.36;93.87
15529;BME280;7866;52.280;9.500;2023-07-31T07:43:35;99513.13;;;17.26;94.45
15529;BME280;7866;52.280;9.500;2023-07-31T07:48:37;99486.53;;;17.46;93.91
15529;BME280;7866;52.280;9.500;2023-07-31T07:53:38;99497.28;;;17.65;93.76
15529;BME280;7866;52.280;9.500;2023-07-31T07:58:41;99512.78;;;17.46;93.22
15529;BME280;7866;52.280;9.500;2023-07-31T08:03:43;99502.94;;;17.75;93.38
15529;BME280;7866;52.280;9.500;2023-07-31T08:08:45;99502.97;;;18.27;89.79
15529;BME280;7866;52.280;9.500;2023-07-31T08:13:48;99503.97;;;18.50;89.33
15529;BME280;7866;52.280;9.500;2023-07-31T08:18:49;99514.66;;;18.28;89.75
15529;BME280;7866;52.280;9.500;2023-07-31T08:23:51;99515.19;;;18.41;90.12
15529;BME280;7866;52.280;9.500;2023-07-31T08:28:54;99498.19;;;18.46;89.88
15529;BME280;7866;52.280;9.500;2023-07-31T08:33:56;99512.84;;;18.33;89.91
15529;BME280;7866;52.280;9.500;2023-07-31T08:38:57;99510.19;;;18.21;90.80
15529;BME280;7866;52.280;9.500;2023-07-31T08:44:00;99485.13;;;17.91;92.21
15529;BME280;7866;52.280;9.500;2023-07-31T08:49:05;99486.97;;;18.14;92.77
15529;BME280;7866;52.280;9.500;2023-07-31T08:54:07;99484.53;;;18.12;92.64
15529;BME280;7866;52.280;9.500;2023-07-31T08:59:11;99482.50;;;18.19;93.08
15529;BME280;7866;52.280;9.500;2023-07-31T09:04:15;99487.19;;;18.24;93.50
15529;BME280;7866;52.280;9.500;2023-07-31T09:09:17;99476.53;;;18.34;93.23
15529;BME280;7866;52.280;9.500;2023-07-31T09:14:22;99478.44;;;18.62;91.82
15529;BME280;7866;52.280;9.500;2023-07-31T09:19:26;99473.09;;;18.39;92.25
15529;BME280;7866;52.280;9.500;2023-07-31T09:24:29;99458.69;;;18.50;93.78
15529;BME280;7866;52.280;9.500;2023-07-31T09:29:32;99469.78;;;18.77;93.08
15529;BME280;7866;52.280;9.500;2023-07-31T09:34:37;99460.72;;;18.43;92.87
15529;BME280;7866;52.280;9.500;2023-07-31T09:39:46;99461.16;;;18.52;93.69
15529;BME280;7866;52.280;9.500;2023-07-31T09:44:49;99460.00;;;18.48;93.82
15529;BME280;7866;52.280;9.500;2023-07-31T09:49:51;99450.81;;;18.77;92.72
15529;BME280;7866;52.280;9.500;2023-07-31T09:54:52;99451.44;;;18.67;91.97
15529;BME280;7866;52.280;9.500;2023-07-31T09:59:55;99441.69;;;18.83;91.68
15529;BME280;7866;52.280;9.500;2023-07-31T10:04:58;99435.94;;;18.80;92.00
15529;BME280;7866;52.280;9.500;2023-07-31T10:10:04;99444.31;;;18.78;91.64
15529;BME280;7866;52.280;9.500;2023-07-31T10:15:08;99439.50;;;18.68;92.60
15529;BME280;7866;52.280;9.500;2023-07-31T10:20:11;99435.28;;;18.61;92.82
15529;BME280;7866;52.280;9.500;2023-07-31T10:25:13;99430.75;;;18.78;93.26
15529;BME280;7866;52.280;9.500;2023-07-31T10:30:20;99435.88;;;18.91;92.47
15529;BME280;7866;52.280;9.500;2023-07-31T10:35:22;99433.25;;;18.68;91.80
15529;BME280;7866;52.280;9.500;2023-07-31T10:40:27;99423.13;;;18.75;92.79
15529;BME280;7866;52.280;9.500;2023-07-31T10:45:33;99407.66;;;18.92;93.03
15529;BME280;7866;52.280;9.500;2023-07-31T10:50:37;99413.09;;;18.76;91.67
15529;BME280;7866;52.280;9.500;2023-07-31T10:55:40;99412.91;;;18.82;91.76
15529;BME280;7866;52.280;9.500;2023-07-31T11:00:44;99412.91;;;18.82;91.38
15529;BME280;7866;52.280;9.500;2023-07-31T11:05:51;99405.34;;;18.84;92.61
15529;BME280;7866;52.280;9.500;2023-07-31T11:11:05;99413.25;;;18.86;92.58
15529;BME280;7866;52.280;9.500;2023-07-31T11:16:08;99395.47;;;18.78;92.76
15529;BME280;7866;52.280;9.500;2023-07-31T11:21:12;99408.25;;;19.11;92.02
15529;BME280;7866;52.280;9.500;2023-07-31T11:26:14;99406.25;;;19.07;90.97
15529;BME280;7866;52.280;9.500;2023-07-31T11:31:18;99398.44;;;18.93;92.22
15529;BME280;7866;52.280;9.500;2023-07-31T11:36:20;99405.00;;;19.14;92.56
15529;BME280;7866;52.280;9.500;2023-07-31T11:41:22;99385.84;;;19.21;92.55
15529;BME280;7866;52.280;9.500;2023-07-31T11:46:25;99382.97;;;19.11;92.86
15529;BME280;7866;52.280;9.500;2023-07-31T11:51:27;99383.56;;;19.13;93.15
15529;BME280;7866;52.280;9.500;2023-07-31T11:56:31;99377.03;;;19.14;93.44
15529;BME280;7866;52.280;9.500;2023-07-31T12:01:34;99370.88;;;19.02;94.01
15529;BME280;7866;52.280;9.500;2023-07-31T12:06:36;99384.78;;;19.05;94.83
15529;BME280;7866;52.280;9.500;2023-07-31T12:11:42;99383.31;;;18.98;94.45
15529;BME280;7866;52.280;9.500;2023-07-31T12:16:46;99374.44;;;19.19;94.84
15529;BME280;7866;52.280;9.500;2023-07-31T12:21:47;99379.34;;;19.05;94.95
15529;BME280;7866;52.280;9.500;2023-07-31T12:26:49;99371.53;;;19.09;95.44
15529;BME280;7866;52.280;9.500;2023-07-31T12:31:53;99362.59;;;19.08;95.18
15529;BME280;7866;52.280;9.500;2023-07-31T12:36:55;99363.03;;;19.22;95.28
15529;BME280;7866;52.280;9.500;2023-07-31T12:41:56;99356.34;;;19.08;94.05
15529;BME280;7866;52.280;9.500;2023-07-31T12:47:01;99359.13;;;19.13;93.93
15529;BME280;7866;52.280;9.500;2023-07-31T12:52:05;99350.22;;;19.17;93.81
15529;BME280;7866;52.280;9.500;2023-07-31T12:57:06;99345.50;;;19.30;94.28
15529;BME280;7866;52.280;9.500;2023-07-31T13:02:09;99338.97;;;19.09;93.79
15529;BME280;7866;52.280;9.500;2023-07-31T13:07:11;99335.94;;;19.44;93.11
15529;BME280;7866;52.280;9.500;2023-07-31T13:12:13;99324.16;;;19.38;92.21
15529;BME280;7866;52.280;9.500;2023-07-31T13:17:16;99323.63;;;19.36;91.53
15529;BME280;7866;52.280;9.500;2023-07-31T13:22:17;99334.09;;;19.50;92.27
15529;BME280;7866;52.280;9.500;2023-07-31T13:27:19;99335.72;;;19.51;92.55
15529;BME280;7866;52.280;9.500;2023-07-31T13:32:26;99334.16;;;19.55;92.13
15529;BME280;7866;52.280;9.500;2023-07-31T13:37:28;99329.44;;;19.89;91.03
15529;BME280;7866;52.280;9.500;2023-07-31T13:42:29;99328.00;;;19.81;90.80
15529;BME280;7866;52.280;9.500;2023-07-31T13:47:32;99326.59;;;19.57;91.55
15529;BME280;7866;52.280;9.500;2023-07-31T13:52:34;99324.81;;;19.45;92.95
15529;BME280;7866;52.280;9.500;2023-07-31T13:57:36;99308.53;;;19.45;93.83
15529;BME280;7866;52.280;9.500;2023-07-31T14:02:39;99323.03;;;19.34;93.46
15529;BME280;7866;52.280;9.500;2023-07-31T14:07:40;99317.88;;;19.33;94.36
15529;BME280;7866;52.280;9.500;2023-07-31T14:12:42;99313.63;;;19.42;93.31
15529;BME280;7866;52.280;9.500;2023-07-31T14:17:45;99301.41;;;19.39;92.43
15529;BME280;7866;52.280;9.500;2023-07-31T14:22:47;99288.25;;;19.53;92.07
15529;BME280;7866;52.280;9.500;2023-07-31T14:27:48;99293.56;;;19.65;91.08
15529;BME280;7866;52.280;9.500;2023-07-31T14:32:51;99293.31;;;19.66;91.03
15529;BME280;7866;52.280;9.500;2023-07-31T14:37:53;99278.41;;;19.69;90.05
15529;BME280;7866;52.280;9.500;2023-07-31T14:42:54;99283.84;;;19.69;89.35
15529;BME280;7866;52.280;9.500;2023-07-31T14:47:57;99277.66;;;20.01;89.07
15529;BME280;7866;52.280;9.500;2023-07-31T14:52:59;99289.28;;;20.23;87.92
15529;BME280;7866;52.280;9.500;2023-07-31T14:58:01;99296.97;;;20.31;85.89
15529;BME280;7866;52.280;9.500;2023-07-31T15:03:04;99295.59;;;20.29;87.06
15529;BME280;7866;52.280;9.500;2023-07-31T15:08:06;99298.25;;;20.51;86.04
15529;BME280;7866;52.280;9.500;2023-07-31T15:13:08;99298.50;;;20.49;86.09
15529;BME280;7866;52.280;9.500;2023-07-31T15:18:10;99298.78;;;20.21;86.28
15529;BME280;7866;52.280;9.500;2023-07-31T15:23:13;99310.56;;;20.04;88.45
15529;BME280;7866;52.280;9.500;2023-07-31T15:28:14;99304.72;;;19.90;89.58
15529;BME280;7866;52.280;9.500;2023-07-31T15:33:19;99288.28;;;19.75;90.68
15529;BME280;7866;52.280;9.500;2023-07-31T15:38:20;99276.13;;;19.83;91.36
15529;BME280;7866;52.280;9.500;2023-07-31T15:43:22;99266.00;;;19.78;90.73
15529;BME280;7866;52.280;9.500;2023-07-31T15:48:26;99246.34;;;19.98;90.68
15529;BME280;7866;52.280;9.500;2023-07-31T15:53:28;99252.09;;;20.02;89.12
15529;BME280;7866;52.280;9.500;2023-07-31T15:58:30;99252.56;;;19.93;88.40
15529;BME280;7866;52.280;9.500;2023-07-31T16:03:33;99244.56;;;20.09;88.62
15529;BME280;7866;52.280;9.500;2023-07-31T16:08:34;99250.28;;;20.07;88.37
15529;BME280;7866;52.280;9.500;2023-07-31T16:13:41;99243.19;;;20.06;87.80
15529;BME280;7866;52.280;9.500;2023-07-31T16:18:44;99240.72;;;20.05;88.34
15529;BME280;7866;52.280;9.500;2023-07-31T16:23:45;99252.72;;;20.09;88.24
15529;BME280;7866;52.280;9.500;2023-07-31T16:28:47;99251.44;;;19.89;87.92
15529;BME280;7866;52.280;9.500;2023-07-31T16:33:50;99255.09;;;19.73;88.75
15529;BME280;7866;52.280;9.500;2023-07-31T16:38:51;99236.25;;;19.66;88.68
15529;BME280;7866;52.280;9.500;2023-07-31T16:43:53;99237.47;;;19.76;88.94
15529;BME280;7866;52.280;9.500;2023-07-31T16:48:56;99229.03;;;19.77;89.02
15529;BME280;7866;52.280;9.500;2023-07-31T16:53:57;99223.00;;;19.70;88.66
15529;BME280;7866;52.280;9.500;2023-07-31T16:58:59;99227.84;;;19.63;88.49
15529;BME280;7866;52.280;9.500;2023-07-31T17:04:02;99212.34;;;19.63;88.21
15529;BME280;7866;52.280;9.500;2023-07-31T17:09:04;99212.81;;;19.60;88.50
15529;BME280;7866;52.280;9.500;2023-07-31T17:14:05;99188.34;;;19.55;88.78
15529;BME280;7866;52.280;9.500;2023-07-31T17:19:09;99191.75;;;19.45;88.82
15529;BME280;7866;52.280;9.500;2023-07-31T17:24:10;99183.56;;;19.40;89.13
15529;BME280;7866;52.280;9.500;2023-07-31T17:29:14;99180.84;;;19.40;89.13
15529;BME280;7866;52.280;9.500;2023-07-31T17:34:17;99171.56;;;19.36;89.64
15529;BME280;7866;52.280;9.500;2023-07-31T17:39:19;99161.22;;;19.33;89.49
15529;BME280;7866;52.280;9.500;2023-07-31T17:44:21;99155.50;;;19.35;89.49
15529;BME280;7866;52.280;9.500;2023-07-31T17:49:24;99150.63;;;19.32;89.39
15529;BME280;7866;52.280;9.500;2023-07-31T17:54:26;99159.06;;;19.35;89.32
15529;BME280;7866;52.280;9.500;2023-07-31T17:59:27;99147.63;;;19.33;89.31
15529;BME280;7866;52.280;9.500;2023-07-31T18:04:30;99144.97;;;19.38;89.15
15529;BME280;7866;52.280;9.500;2023-07-31T18:09:32;99139.22;;;19.35;89.43
15529;BME280;7866;52.280;9.500;2023-07-31T18:14:37;99130.22;;;19.29;90.16
15529;BME280;7866;52.280;9.500;2023-07-31T18:19:41;99134.78;;;19.24;90.24
15529;BME280;7866;52.280;9.500;2023-07-31T18:24:43;99134.22;;;19.22;90.70
15529;BME280;7866;52.280;9.500;2023-07-31T18:29:45;99126.22;;;19.10;91.29
15529;BME280;7866;52.280;9.500;2023-07-31T18:34:48;99116.75;;;19.12;91.89
15529;BME280;7866;52.280;9.500;2023-07-31T18:39:49;99109.31;;;19.03;92.28
15529;BME280;7866;52.280;9.500;2023-07-31T18:44:51;99119.88;;;18.99;92.84
15529;BME280;7866;52.280;9.500;2023-07-31T18:49:54;99116.16;;;18.83;94.42
15529;BME280;7866;52.280;9.500;2023-07-31T18:54:55;99106.81;;;18.74;95.52
15529;BME280;7866;52.280;9.500;2023-07-31T18:59:57;99100.25;;;18.70;95.83
15529;BME280;7866;52.280;9.500;2023-07-31T19:05:00;99101.88;;;18.71;96.16
15529;BME280;7866;52.280;9.500;2023-07-31T19:10:02;99098.75;;;18.62;96.68
15529;BME280;7866;52.280;9.500;2023-07-31T19:15:07;99101.75;;;18.61;97.06
15529;BME280;7866;52.280;9.500;2023-07-31T19:20:12;99084.59;;;18.55;97.45
15529;BME280;7866;52.280;9.500;2023-07-31T19:25:14;99077.50;;;18.54;98.27
15529;BME280;7866;52.280;9.500;2023-07-31T19:30:20;99085.91;;;18.53;99.24
15529;BME280;7866;52.280;9.500;2023-07-31T19:35:24;99080.97;;;18.50;98.30
15529;BME280;7866;52.280;9.500;2023-07-31T19:40:26;99082.56;;;18.45;99.61
15529;BME280;7866;52.280;9.500;2023-07-31T19:45:28;99060.56;;;18.42;98.72
15529;BME280;7866;52.280;9.500;2023-07-31T19:50:31;99053.81;;;18.44;99.30
15529;BME280;7866;52.280;9.500;2023-07-31T19:55:33;99050.97;;;18.34;99.40
15529;BME280;7866;52.280;9.500;2023-07-31T20:00:34;99044.41;;;18.30;99.71
15529;BME280;7866;52.280;9.500;2023-07-31T20:05:37;99036.84;;;18.32;99.90
15529;BME280;7866;52.280;9.500;2023-07-31T20:10:39;99030.78;;;18.25;99.64
15529;BME280;7866;52.280;9.500;2023-07-31T20:15:43;99019.91;;;18.20;99.66
15529;BME280;7866;52.280;9.500;2023-07-31T20:20:47;99032.88;;;18.18;99.71
15529;BME280;7866;52.280;9.500;2023-07-31T20:25:49;99015.97;;;18.11;99.85
15529;BME280;7866;52.280;9.500;2023-07-31T20:30:51;99008.91;;;18.10;100.00
15529;BME280;7866;52.280;9.500;2023-07-31T20:35:54;98993.16;;;18.07;99.75
15529;BME280;7866;52.280;9.500;2023-07-31T20:40:56;98989.94;;;18.10;100.00
15529;BME280;7866;52.280;9.500;2023-07-31T20:45:57;98965.25;;;18.06;100.00
15529;BME280;7866;52.280;9.500;2023-07-31T20:51:00;98947.63;;;18.04;100.00
15529;BME280;7866;52.280;9.500;2023-07-31T20:56:02;98918.19;;;17.90;100.00
15529;BME280;7866;52.280;9.500;2023-07-31T21:01:04;98917.53;;;17.83;100.00
15529;BME280;7866;52.280;9.500;2023-07-31T21:06:07;98901.28;;;17.83;100.00
15529;BME280;7866;52.280;9.500;2023-07-31T21:11:09;98886.06;;;17.77;100.00
15529;BME280;7866;52.280;9.500;2023-07-31T21:16:10;98899.44;;;17.84;100.00
15529;BME280;7866;52.280;9.500;2023-07-31T21:21:13;98873.72;;;17.86;100.00
15529;BME280;7866;52.280;9.500;2023-07-31T21:26:15;98869.09;;;17.87;100.00
15529;BME280;7866;52.280;9.500;2023-07-31T21:31:16;98853.00;;;17.75;100.00
15529;BME280;7866;52.280;9.500;2023-07-31T21:36:19;98859.03;;;17.82;100.00
15529;BME280;7866;52.280;9.500;2023-07-31T21:41:21;98860.44;;;17.85;100.00
15529;BME280;7866;52.280;9.500;2023-07-31T21:46:23;98844.94;;;17.80;100.00
15529;BME280;7866;52.280;9.500;2023-07-31T21:51:26;98840.50;;;17.74;100.00
15529;BME280;7866;52.280;9.500;2023-07-31T21:56:30;98833.31;;;17.80;100.00
15529;BME280;7866;52.280;9.500;2023-07-31T22:01:37;98825.19;;;17.80;100.00
15529;BME280;7866;52.280;9.500;2023-07-31T22:06:43;98809.97;;;17.79;100.00
15529;BME280;7866;52.280;9.500;2023-07-31T22:11:44;98818.19;;;17.84;100.00
15529;BME280;7866;52.280;9.500;2023-07-31T22:16:46;98818.38;;;17.77;100.00
15529;BME280;7866;52.280;9.500;2023-07-31T22:21:49;98808.28;;;17.72;100.00
15529;BME280;7866;52.280;9.500;2023-07-31T22:26:50;98806.13;;;17.75;100.00
15529;BME280;7866;52.280;9.500;2023-07-31T22:31:52;98791.56;;;17.76;100.00
15529;BME280;7866;52.280;9.500;2023-07-31T22:36:55;98805.28;;;17.74;100.00
15529;BME280;7866;52.280;9.500;2023-07-31T22:41:57;98797.66;;;17.71;100.00
15529;BME280;7866;52.280;9.500;2023-07-31T22:46:58;98780.50;;;17.82;100.00
15529;BME280;7866;52.280;9.500;2023-07-31T22:52:02;98782.72;;;17.85;100.00
15529;BME280;7866;52.280;9.500;2023-07-31T22:57:04;98790.78;;;17.80;100.00
15529;BME280;7866;52.280;9.500;2023-07-31T23:02:05;98780.94;;;17.74;100.00
15529;BME280;7866;52.280;9.500;2023-07-31T23:07:10;98774.53;;;17.80;100.00
15529;BME280;7866;52.280;9.500;2023-07-31T23:12:11;98749.63;;;17.83;100.00
15529;BME280;7866;52.280;9.500;2023-07-31T23:17:13;98742.41;;;17.67;100.00
15529;BME280;7866;52.280;9.500;2023-07-31T23:22:16;98731.63;;;17.72;100.00
15529;BME280;7866;52.280;9.500;2023-07-31T23:27:18;98729.47;;;17.74;100.00
15529;BME280;7866;52.280;9.500;2023-07-31T23:32:19;98732.13;;;17.69;100.00
15529;BME280;7866;52.280;9.500;2023-07-31T23:37:23;98715.91;;;17.69;100.00
15529;BME280;7866;52.280;9.500;2023-07-31T23:42:25;98699.59;;;17.64;100.00
15529;BME280;7866;52.280;9.500;2023-07-31T23:47:26;98698.72;;;17.58;100.00
15529;BME280;7866;52.280;9.500;2023-07-31T23:52:29;98697.72;;;17.64;100.00
15529;BME280;7866;52.280;9.500;2023-07-31T23:57:33;98686.25;;;17.57;100.00
